Time;durP1;ratioP1;P1;durP2;ratioP2;P2;SDS_P1;SDS_P2;PMS_P1;PMS_P2;Temp;Humidity;BMP_temperature;BMP_pressure;BME280_temperature;BME280_humidity;BME280_pressure;Samples;Min_cycle;Max_cycle;Signal;HPM_P1;HPM_P2
2022/07/25 00:00:38;;;;;;;6.80;6.13;;;;;;;23.28;63.42;100826.09;3592565;39;20063;-64
2022/07/25 00:03:03;;;;;;;9.75;6.40;;;;;;;23.28;62.71;100814.25;3592182;39;20357;-63
2022/07/25 00:05:30;;;;;;;9.30;6.20;;;;;;;22.96;63.57;100760.38;3592526;39;20388;-63
2022/07/25 00:07:56;;;;;;;7.18;6.47;;;;;;;23.26;62.21;100806.22;3591720;39;20044;-63
2022/07/25 00:10:22;;;;;;;8.38;6.80;;;;;;;23.20;61.65;100798.69;3583352;39;20073;-64
2022/07/25 00:12:48;;;;;;;8.10;6.55;;;;;;;23.25;62.72;100799.03;3591727;39;20343;-64
2022/07/25 00:15:14;;;;;;;8.43;6.60;;;;;;;23.22;63.09;100796.63;3590655;39;20115;-64
2022/07/25 00:17:39;;;;;;;7.38;6.30;;;;;;;23.23;62.79;100798.34;3593692;39;20059;-64
2022/07/25 00:20:07;;;;;;;10.57;7.00;;;;;;;23.25;63.13;100793.53;3594339;39;20059;-63
2022/07/25 00:22:32;;;;;;;8.85;6.50;;;;;;;23.22;61.38;100787.56;3593004;39;20543;-63
2022/07/25 00:24:58;;;;;;;6.60;5.93;;;;;;;23.22;60.51;100788.41;3591745;39;20056;-63
2022/07/25 00:27:24;;;;;;;7.10;6.40;;;;;;;23.22;61.16;100791.16;3593435;39;20055;-65
2022/07/25 00:29:50;;;;;;;7.72;6.47;;;;;;;23.19;61.57;100777.78;3594903;39;20051;-63
2022/07/25 00:32:15;;;;;;;6.47;5.80;;;;;;;23.23;59.84;100781.03;3594010;39;20067;-64
2022/07/25 00:34:41;;;;;;;8.00;6.45;;;;;;;23.09;60.41;100756.06;3593454;39;20125;-63
2022/07/25 00:37:07;;;;;;;6.55;5.88;;;;;;;23.25;60.34;100778.94;3592338;39;20408;-63
2022/07/25 00:39:33;;;;;;;6.32;5.72;;;;;;;23.23;60.83;100764.56;3592734;39;20059;-64
2022/07/25 00:41:58;;;;;;;7.10;6.40;;;;;;;23.20;60.99;100763.03;3591157;39;20146;-64
2022/07/25 00:44:31;;;;;;;6.43;5.82;;;;;;;23.20;60.43;100759.44;3591901;39;20063;-64
2022/07/25 00:46:58;;;;;;;6.65;6.00;;;;;;;23.18;60.85;100759.59;3592595;39;20083;-64
2022/07/25 00:49:25;;;;;;;6.72;6.10;;;;;;;23.15;60.83;100755.34;3593413;39;20121;-63
2022/07/25 00:51:53;;;;;;;7.50;6.28;;;;;;;23.15;62.14;100757.22;3590783;39;20056;-63
2022/07/25 00:54:20;;;;;;;6.90;6.30;;;;;;;23.12;60.92;100750.22;3591963;39;20084;-63
2022/07/25 00:56:48;;;;;;;8.15;6.28;;;;;;;23.11;60.18;100753.13;3594360;39;20055;-63
2022/07/25 00:59:15;;;;;;;6.60;5.90;;;;;;;23.11;60.02;100747.66;3592904;39;20062;-64
2022/07/25 01:01:41;;;;;;;6.47;5.88;;;;;;;23.13;60.46;100751.06;3592644;39;20047;-63
2022/07/25 01:04:07;;;;;;;6.38;5.80;;;;;;;23.03;59.61;100729.34;3589488;39;20052;-63
2022/07/25 01:06:33;;;;;;;6.85;5.63;;;;;;;23.10;60.21;100744.06;3584604;39;20511;-63
2022/07/25 01:09:01;;;;;;;7.28;6.40;;;;;;;22.64;60.53;100669.00;3593460;39;20060;-63
2022/07/25 01:11:27;;;;;;;6.53;5.88;;;;;;;23.09;60.07;100736.00;3589306;39;20051;-63
2022/07/25 01:13:52;;;;;;;10.55;5.90;;;;;;;23.07;59.55;100730.69;3589499;39;20458;-63
2022/07/25 01:16:18;;;;;;;7.80;6.30;;;;;;;23.06;60.38;100722.66;3590241;39;20071;-63
2022/07/25 01:18:44;;;;;;;7.15;5.72;;;;;;;22.83;59.26;100695.97;3589772;39;20055;-63
2022/07/25 01:21:09;;;;;;;6.40;5.72;;;;;;;23.05;59.57;100721.78;3588861;39;20055;-63
2022/07/25 01:23:35;;;;;;;6.63;6.03;;;;;;;22.98;59.67;100714.47;3593242;39;20652;-63
2022/07/25 01:26:01;;;;;;;6.68;5.68;;;;;;;23.02;60.47;100718.56;3591017;39;20047;-63
2022/07/25 01:28:27;;;;;;;5.72;5.22;;;;;;;23.01;59.37;100716.84;3588939;39;20074;-63
2022/07/25 01:30:52;;;;;;;6.32;5.80;;;;;;;22.99;59.50;100719.75;3593901;39;20503;-63
2022/07/25 01:33:21;;;;;;;6.93;5.70;;;;;;;23.00;59.12;100707.78;3593258;39;20110;-63
2022/07/25 01:35:49;;;;;;;6.40;5.75;;;;;;;23.00;59.12;100712.41;3591548;39;20136;-63
2022/07/25 01:38:15;;;;;;;6.57;5.72;;;;;;;23.02;58.29;100710.31;3590906;39;20082;-63
2022/07/25 01:40:43;;;;;;;6.63;5.65;;;;;;;23.04;58.05;100708.28;3593533;39;20103;-64
2022/07/25 01:43:09;;;;;;;6.13;5.53;;;;;;;23.05;58.26;100709.97;3582537;39;20048;-64
2022/07/25 01:45:35;;;;;;;6.47;5.40;;;;;;;23.02;59.01;100696.63;3592479;39;20093;-64
2022/07/25 01:48:01;;;;;;;6.70;5.40;;;;;;;23.07;56.62;100703.28;3592660;39;20063;-64
2022/07/25 01:50:27;;;;;;;9.52;6.05;;;;;;;23.09;57.97;100695.75;3591730;39;20075;-64
2022/07/25 01:52:53;;;;;;;5.82;5.20;;;;;;;23.08;58.29;100683.03;3589157;39;20047;-63
2022/07/25 01:55:18;;;;;;;7.60;5.28;;;;;;;23.07;57.36;100675.88;3594303;39;20074;-63
2022/07/25 01:57:44;;;;;;;5.78;5.28;;;;;;;23.14;57.18;100678.72;3590428;39;20130;-62
2022/07/25 02:00:13;;;;;;;7.60;5.50;;;;;;;23.18;57.75;100680.06;3591333;39;20046;-63
2022/07/25 02:02:42;;;;;;;6.38;5.63;;;;;;;23.19;57.30;100679.06;3591758;39;20055;-63
2022/07/25 02:05:11;;;;;;;5.57;5.07;;;;;;;23.21;57.93;100670.63;3589060;39;20140;-63
2022/07/25 02:07:37;;;;;;;5.90;5.22;;;;;;;23.18;56.75;100666.34;3588763;39;20121;-63
2022/07/25 02:10:06;;;;;;;6.80;5.20;;;;;;;23.18;56.88;100671.84;3593242;39;20388;-63
2022/07/25 02:12:32;;;;;;;5.85;5.22;;;;;;;23.16;56.35;100669.28;3593551;39;20066;-62
2022/07/25 02:14:59;;;;;;;5.95;5.40;;;;;;;23.19;56.49;100664.50;3593639;39;20422;-63
2022/07/25 02:17:24;;;;;;;6.15;5.43;;;;;;;23.23;55.81;100669.44;3591198;39;20075;-63
2022/07/25 02:19:50;;;;;;;5.93;5.43;;;;;;;23.26;56.47;100663.56;3594566;39;20067;-63
2022/07/25 02:22:16;;;;;;;6.90;5.00;;;;;;;23.31;54.99;100665.75;3581228;39;20508;-62
2022/07/25 02:24:42;;;;;;;5.70;5.20;;;;;;;23.27;56.62;100653.44;3592663;39;20051;-63
2022/07/25 02:27:08;;;;;;;6.00;5.30;;;;;;;23.35;55.39;100667.97;3592276;39;20054;-63
2022/07/25 02:29:33;;;;;;;5.90;5.30;;;;;;;23.33;54.60;100661.81;3593493;39;20084;-63
2022/07/25 02:31:59;;;;;;;6.82;5.47;;;;;;;23.37;54.57;100657.69;3592990;39;20047;-63
2022/07/25 02:34:24;;;;;;;5.75;5.20;;;;;;;23.38;54.80;100656.63;3592626;39;20068;-64
2022/07/25 02:36:50;;;;;;;5.82;5.22;;;;;;;23.04;54.71;100599.44;3594074;39;20071;-64
2022/07/25 02:39:16;;;;;;;6.35;5.20;;;;;;;23.22;53.72;100623.84;3593197;39;20059;-63
2022/07/25 02:41:43;;;;;;;5.55;5.05;;;;;;;23.38;54.34;100644.81;3592651;39;20083;-64
2022/07/25 02:44:09;;;;;;;7.00;5.20;;;;;;;23.37;54.59;100649.44;3591976;39;20349;-64
2022/07/25 02:46:35;;;;;;;5.70;5.18;;;;;;;23.37;54.41;100638.47;3593277;39;20066;-63
2022/07/25 02:49:01;;;;;;;7.72;5.47;;;;;;;23.37;54.14;100638.47;3593537;39;20061;-64
2022/07/25 02:51:26;;;;;;;7.57;5.05;;;;;;;23.36;54.65;100636.75;3580913;39;20228;-64
2022/07/25 02:53:52;;;;;;;5.68;5.13;;;;;;;23.35;54.62;100636.94;3593620;39;20359;-64
2022/07/25 02:56:18;;;;;;;5.65;5.15;;;;;;;23.35;54.14;100639.69;3591381;39;20063;-64
2022/07/25 02:58:43;;;;;;;7.38;5.20;;;;;;;23.32;53.94;100637.31;3593497;39;20078;-64
2022/07/25 03:01:09;;;;;;;6.22;5.07;;;;;;;23.31;54.43;100633.72;3592562;39;20320;-64
2022/07/25 03:03:35;;;;;;;5.80;5.30;;;;;;;23.33;53.35;100637.13;3593108;39;20056;-64
2022/07/25 03:06:01;;;;;;;5.18;4.68;;;;;;;23.35;53.08;100632.31;3593629;39;20051;-63
2022/07/25 03:08:27;;;;;;;7.97;5.50;;;;;;;23.35;53.20;100624.09;3590955;39;20381;-63
2022/07/25 03:10:53;;;;;;;6.20;5.40;;;;;;;23.34;52.62;100616.91;3591902;39;20056;-64
2022/07/25 03:13:18;;;;;;;6.28;5.43;;;;;;;23.38;52.96;100609.16;3592950;39;20059;-64
2022/07/25 03:15:44;;;;;;;5.57;5.05;;;;;;;23.36;53.44;100603.84;3593378;39;20105;-63
2022/07/25 03:18:10;;;;;;;6.25;5.22;;;;;;;23.34;52.60;100605.94;3595263;39;20256;-64
2022/07/25 03:20:35;;;;;;;5.70;5.20;;;;;;;23.40;52.91;100607.06;3594926;39;20068;-63
2022/07/25 03:23:01;;;;;;;5.75;5.25;;;;;;;23.38;52.65;100614.63;3594524;39;20072;-64
2022/07/25 03:25:27;;;;;;;6.15;5.55;;;;;;;23.39;52.66;100602.63;3594222;39;20064;-63
2022/07/25 03:27:53;;;;;;;6.88;5.18;;;;;;;23.39;52.63;100608.94;3596113;39;20312;-62
2022/07/25 03:30:18;;;;;;;8.75;5.20;;;;;;;23.39;53.06;100606.22;3594555;39;20285;-62
2022/07/25 03:32:44;;;;;;;5.75;4.80;;;;;;;23.37;52.78;100605.56;3596426;39;20051;-63
2022/07/25 03:35:10;;;;;;;6.90;5.32;;;;;;;23.37;52.66;100602.81;3595044;39;20072;-63
2022/07/25 03:37:35;;;;;;;8.63;5.72;;;;;;;23.40;52.99;100610.66;3592309;39;20068;-62
2022/07/25 03:40:01;;;;;;;6.03;4.82;;;;;;;23.38;52.59;100604.50;3593600;39;20132;-62
2022/07/25 03:42:26;;;;;;;7.35;5.35;;;;;;;23.39;52.27;100597.13;3591524;39;20056;-62
2022/07/25 03:44:52;;;;;;;6.07;5.35;;;;;;;23.39;52.93;100606.22;3594687;39;20066;-62
2022/07/25 03:47:17;;;;;;;6.13;5.53;;;;;;;23.33;53.07;100606.94;3593275;39;20063;-62
2022/07/25 03:49:43;;;;;;;7.13;5.65;;;;;;;23.33;53.20;100608.84;3595715;39;20083;-62
2022/07/25 03:52:08;;;;;;;6.15;5.43;;;;;;;23.28;52.76;100601.19;3594556;39;20056;-61
2022/07/25 03:54:34;;;;;;;6.45;5.60;;;;;;;23.30;53.57;100610.06;3595849;39;21787;-62
2022/07/25 03:57:00;;;;;;;6.82;5.60;;;;;;;23.26;53.28;100602.38;3594213;39;20558;-62
2022/07/25 03:59:25;;;;;;;6.63;5.88;;;;;;;23.22;54.08;100598.31;3596620;39;20309;-62
2022/07/25 04:01:51;;;;;;;7.78;6.10;;;;;;;23.20;53.75;100598.47;3593236;39;20373;-62
2022/07/25 04:04:18;;;;;;;8.30;5.75;;;;;;;23.14;53.89;100589.09;3594564;39;20059;-62
2022/07/25 04:06:45;;;;;;;6.20;5.60;;;;;;;23.08;53.90;100589.81;3593608;39;20115;-62
2022/07/25 04:09:12;;;;;;;8.55;5.60;;;;;;;22.39;54.48;100477.38;3593709;39;20044;-62
2022/07/25 04:11:38;;;;;;;7.30;6.05;;;;;;;23.03;54.09;100586.78;3592723;39;20093;-62
2022/07/25 04:14:05;;;;;;;6.18;5.57;;;;;;;23.03;54.45;100591.41;3596665;39;20440;-61
2022/07/25 04:16:31;;;;;;;6.78;5.88;;;;;;;22.94;54.72;100582.38;3592272;39;20128;-61
2022/07/25 04:18:57;;;;;;;8.13;5.45;;;;;;;22.96;54.42;100590.41;3596075;39;20066;-61
2022/07/25 04:21:24;;;;;;;7.80;5.82;;;;;;;22.94;54.76;100585.97;3592313;39;20051;-61
2022/07/25 04:23:50;;;;;;;6.80;5.57;;;;;;;22.90;54.74;100576.38;3593507;39;20058;-62
2022/07/25 04:26:17;;;;;;;8.35;5.72;;;;;;;22.89;54.91;100588.38;3595238;39;20057;-62
2022/07/25 04:28:43;;;;;;;6.18;5.30;;;;;;;22.85;55.38;100580.69;3594278;39;20132;-62
2022/07/25 04:31:08;;;;;;;6.90;6.10;;;;;;;22.82;54.78;100579.16;3593403;39;20059;-61
2022/07/25 04:33:39;;;;;;;7.38;5.95;;;;;;;22.80;54.86;100588.59;3591208;39;20450;-61
2022/07/25 04:36:05;;;;;;;6.45;5.47;;;;;;;22.77;55.35;100592.56;3596931;39;20119;-61
2022/07/25 04:38:32;;;;;;;8.10;5.82;;;;;;;22.79;55.63;100595.13;3594321;39;20062;-61
2022/07/25 04:40:58;;;;;;;7.32;5.85;;;;;;;22.74;55.49;100584.72;3594141;39;20059;-62
2022/07/25 04:43:24;;;;;;;9.48;5.93;;;;;;;22.67;55.67;100575.47;3592770;39;20103;-61
2022/07/25 04:45:50;;;;;;;6.78;5.40;;;;;;;22.81;55.57;100587.59;3594594;39;20063;-61
2022/07/25 04:48:15;;;;;;;7.63;5.85;;;;;;;22.83;55.50;100589.09;3592169;39;20152;-62
2022/07/25 04:50:41;;;;;;;7.15;5.30;;;;;;;22.83;55.44;100580.88;3594320;39;20333;-61
2022/07/25 04:53:07;;;;;;;8.85;5.88;;;;;;;22.83;55.17;100580.00;3594293;39;20101;-61
2022/07/25 04:55:33;;;;;;;8.75;5.88;;;;;;;22.83;55.47;100586.34;3594398;39;20066;-62
2022/07/25 04:57:59;;;;;;;8.20;5.85;;;;;;;22.83;55.96;100575.38;3593239;39;20059;-62
2022/07/25 05:00:25;;;;;;;6.70;5.68;;;;;;;22.86;55.72;100579.66;3593543;39;20059;-62
2022/07/25 05:02:51;;;;;;;7.63;5.55;;;;;;;22.86;55.74;100585.97;3594305;39;20075;-62
2022/07/25 05:05:18;;;;;;;7.20;5.25;;;;;;;22.74;55.29;100559.16;3590219;39;20059;-62
2022/07/25 05:07:45;;;;;;;6.85;6.15;;;;;;;22.90;55.61;100587.34;3593008;39;20086;-61
2022/07/25 05:10:11;;;;;;;6.00;5.40;;;;;;;22.95;55.39;100589.56;3593372;39;20059;-61
2022/07/25 05:12:36;;;;;;;5.80;5.28;;;;;;;22.98;55.59;100586.47;3593605;39;20125;-61
2022/07/25 05:15:04;;;;;;;6.53;5.65;;;;;;;23.02;55.60;100584.22;3595207;39;20059;-61
2022/07/25 05:17:29;;;;;;;10.70;5.70;;;;;;;22.69;55.22;100543.28;3594157;39;20043;-62
2022/07/25 05:19:57;;;;;;;7.38;6.05;;;;;;;23.07;55.40;100592.75;3592550;39;20412;-61
2022/07/25 05:22:24;;;;;;;8.23;5.50;;;;;;;23.10;55.41;100589.66;3592932;39;20376;-61
2022/07/25 05:24:49;;;;;;;7.15;5.88;;;;;;;23.11;55.33;100589.44;3589890;39;20172;-61
2022/07/25 05:27:15;;;;;;;6.80;5.85;;;;;;;23.15;55.13;100584.44;3592171;39;20047;-61
2022/07/25 05:29:40;;;;;;;7.38;5.57;;;;;;;23.18;55.25;100578.59;3582070;39;20444;-61
2022/07/25 05:32:06;;;;;;;7.25;5.82;;;;;;;23.21;55.24;100582.88;3593172;39;20392;-61
2022/07/25 05:34:32;;;;;;;7.85;5.90;;;;;;;23.25;55.36;100586.94;3594234;39;21002;-62
2022/07/25 05:36:57;;;;;;;10.60;6.03;;;;;;;23.30;55.46;100587.25;3594960;39;20047;-61
2022/07/25 05:39:23;;;;;;;9.68;6.05;;;;;;;23.28;55.46;100601.19;3593323;39;20132;-62
2022/07/25 05:41:49;;;;;;;6.60;5.95;;;;;;;23.24;55.34;100588.00;3594687;39;20060;-61
2022/07/25 05:44:15;;;;;;;7.82;6.10;;;;;;;23.28;55.69;100597.56;3594882;39;20082;-62
2022/07/25 05:46:40;;;;;;;7.75;5.88;;;;;;;23.33;55.91;100598.72;3585239;39;20414;-61
2022/07/25 05:49:06;;;;;;;10.15;5.63;;;;;;;22.66;55.18;100469.66;3582079;39;20047;-62
2022/07/25 05:51:31;;;;;;;10.20;6.25;;;;;;;23.43;55.22;100586.63;3592260;39;20055;-62
2022/07/25 05:53:57;;;;;;;7.45;5.97;;;;;;;23.42;55.16;100584.94;3593085;39;20398;-61
2022/07/25 05:56:22;;;;;;;8.15;6.30;;;;;;;23.42;55.14;100606.88;3594586;39;20350;-63
2022/07/25 05:58:48;;;;;;;8.55;6.10;;;;;;;23.42;55.38;100606.88;3592901;39;20113;-62
2022/07/25 06:01:15;;;;;;;8.70;5.97;;;;;;;23.38;55.01;100604.50;3595270;39;20074;-62
2022/07/25 06:03:41;;;;;;;6.82;6.10;;;;;;;23.30;55.80;100588.09;3593008;39;20165;-62
2022/07/25 06:06:08;;;;;;;6.70;5.90;;;;;;;23.39;55.10;100624.56;3593639;39;20047;-62
2022/07/25 06:08:37;;;;;;;6.78;5.85;;;;;;;23.38;55.19;100618.22;3583476;39;20119;-62
2022/07/25 06:11:06;;;;;;;7.50;6.00;;;;;;;23.24;54.98;100598.97;3593370;39;20058;-62
2022/07/25 06:13:33;;;;;;;8.38;5.88;;;;;;;23.37;55.39;100616.53;3597030;39;20600;-63
2022/07/25 06:15:59;;;;;;;8.07;5.50;;;;;;;23.20;55.25;100593.00;3593294;39;20055;-62
2022/07/25 06:18:26;;;;;;;8.82;5.75;;;;;;;23.33;55.56;100609.69;3593227;39;20124;-64
2022/07/25 06:20:52;;;;;;;6.03;5.40;;;;;;;23.31;55.44;100606.28;3593722;39;20405;-62
2022/07/25 06:23:18;;;;;;;9.05;5.68;;;;;;;23.36;55.48;100614.81;3593353;39;20047;-63
2022/07/25 06:25:45;;;;;;;7.57;5.47;;;;;;;23.38;55.28;100628.34;3592186;39;20470;-63
2022/07/25 06:28:13;;;;;;;6.15;5.43;;;;;;;23.34;55.11;100616.91;3593950;39;20083;-63
2022/07/25 06:30:48;;;;;;;10.55;6.15;;;;;;;23.07;56.00;100587.28;3589782;39;20440;-63
2022/07/25 06:33:13;;;;;;;8.45;5.22;;;;;;;23.30;55.64;100629.25;3594634;39;20659;-63
2022/07/25 06:35:39;;;;;;;7.18;5.60;;;;;;;22.79;55.62;100549.38;3592616;39;20063;-63
2022/07/25 06:38:05;;;;;;;6.63;5.85;;;;;;;23.25;55.54;100628.97;3594193;39;20055;-64
2022/07/25 06:40:30;;;;;;;8.73;5.72;;;;;;;23.27;55.39;100626.03;3593309;39;20055;-63
2022/07/25 06:42:56;;;;;;;6.88;5.57;;;;;;;23.23;56.04;100630.19;3593958;39;20107;-63
2022/07/25 06:45:22;;;;;;;9.38;5.30;;;;;;;23.23;55.54;100625.53;3593799;39;20063;-63
2022/07/25 06:47:48;;;;;;;8.57;5.57;;;;;;;22.94;55.45;100588.72;3594623;39;20063;-64
2022/07/25 06:50:17;;;;;;;5.88;4.70;;;;;;;22.52;55.88;100511.53;3594776;39;20051;-63
2022/07/25 06:52:44;;;;;;;6.25;4.80;;;;;;;23.36;56.07;100636.75;3594776;39;20055;-63
2022/07/25 06:55:13;;;;;;;8.65;4.90;;;;;;;23.40;55.73;100629.00;3595467;39;20392;-63
2022/07/25 06:57:39;;;;;;;6.07;4.82;;;;;;;23.41;56.29;100628.00;3594556;39;20249;-63
2022/07/25 07:00:10;;;;;;;7.93;5.25;;;;;;;23.44;56.22;100634.97;3594252;39;20056;-63
2022/07/25 07:03:00;;;;;;;6.00;4.75;;;;;;;23.42;56.77;100623.34;3581875;39;20103;-63
2022/07/25 07:05:32;;;;;;;6.47;4.53;;;;;;;23.42;56.79;100617.88;3594086;39;20059;-63
2022/07/25 07:07:59;;;;;;;5.85;4.50;;;;;;;23.46;56.93;100616.44;3595262;39;20368;-63
2022/07/25 07:10:26;;;;;;;7.18;4.20;;;;;;;23.28;56.78;100584.72;3594221;39;20059;-63
2022/07/25 07:13:05;;;;;;;8.35;4.00;;;;;;;23.52;56.79;100618.47;3593779;39;20132;-62
2022/07/25 07:15:31;;;;;;;8.93;4.15;;;;;;;23.49;56.84;100619.69;3592658;39;20052;-63
2022/07/25 07:17:56;;;;;;;6.88;3.97;;;;;;;23.34;56.70;100597.69;3596295;39;20354;-63
2022/07/25 07:20:22;;;;;;;6.25;3.60;;;;;;;23.52;57.06;100618.47;3594986;39;20051;-63
2022/07/25 07:22:48;;;;;;;7.90;3.63;;;;;;;23.53;56.68;100606.44;3594584;39;20056;-63
2022/07/25 07:25:16;;;;;;;4.75;3.58;;;;;;;23.68;56.78;100629.28;3594341;39;20039;-63
2022/07/25 07:27:43;;;;;;;8.57;3.33;;;;;;;23.77;57.17;100628.22;3592716;39;20424;-63
2022/07/25 07:30:13;;;;;;;6.90;3.33;;;;;;;23.77;56.18;100611.75;3593579;39;20073;-63
2022/07/25 07:32:39;;;;;;;6.93;3.22;;;;;;;23.82;56.27;100631.25;3594106;39;20333;-63
2022/07/25 07:35:06;;;;;;;6.80;3.30;;;;;;;23.65;56.26;100602.22;3592784;39;20669;-63
2022/07/25 07:37:31;;;;;;;5.45;2.70;;;;;;;23.80;56.83;100633.34;3594188;39;20329;-63
2022/07/25 07:39:57;;;;;;;6.72;2.70;;;;;;;23.81;56.68;100634.19;3594999;39;20043;-63
2022/07/25 07:42:22;;;;;;;4.00;2.42;;;;;;;23.79;57.37;100631.63;3593792;39;20060;-63
2022/07/25 07:44:48;;;;;;;5.03;2.63;;;;;;;23.76;57.50;100637.50;3598162;39;20074;-63
2022/07/25 07:47:13;;;;;;;5.72;2.15;;;;;;;23.72;58.08;100636.13;3595558;39;20055;-63
2022/07/25 07:49:39;;;;;;;5.13;2.05;;;;;;;23.75;58.15;100635.78;3595712;39;20477;-63
2022/07/25 07:52:05;;;;;;;3.05;1.80;;;;;;;23.95;57.53;100629.78;3596829;39;20328;-63
2022/07/25 07:57:15;;;;;;;2.78;1.75;;;;;;;24.79;56.24;100639.44;3594348;39;20125;-63
2022/07/25 07:59:40;;;;;;;3.50;1.38;;;;;;;25.02;54.58;100636.56;3596061;39;20059;-64
2022/07/25 08:02:06;;;;;;;5.25;1.70;;;;;;;25.08;54.15;100645.91;3595498;39;20062;-62
2022/07/25 08:04:31;;;;;;;4.55;2.00;;;;;;;25.13;54.39;100640.72;3596282;39;20120;-62
2022/07/25 08:06:57;;;;;;;2.67;1.70;;;;;;;25.19;54.29;100637.19;3592009;39;20059;-62
2022/07/25 08:09:24;;;;;;;2.58;1.77;;;;;;;25.21;55.59;100637.88;3594225;39;20251;-63
2022/07/25 08:11:51;;;;;;;4.43;1.70;;;;;;;25.29;55.44;100647.03;3595137;39;20055;-64
2022/07/25 08:14:17;;;;;;;6.15;1.88;;;;;;;25.36;55.28;100656.19;3593856;39;20081;-63
2022/07/25 08:16:42;;;;;;;4.95;2.05;;;;;;;25.61;54.28;100646.50;3594523;39;20661;-64
2022/07/25 08:19:08;;;;;;;4.07;1.67;;;;;;;25.65;54.03;100649.69;3594833;39;20059;-64
2022/07/25 08:21:33;;;;;;;5.72;1.92;;;;;;;25.60;54.23;100642.06;3592734;39;20063;-64
2022/07/25 08:23:59;;;;;;;5.57;1.90;;;;;;;25.66;54.37;100651.44;3593546;39;20051;-64
2022/07/25 08:26:26;;;;;;;5.45;1.73;;;;;;;25.77;53.91;100637.09;3594481;39;20058;-64
2022/07/25 08:28:53;;;;;;;6.65;1.85;;;;;;;25.97;54.08;100642.78;3584983;39;20098;-65
2022/07/25 08:31:18;;;;;;;4.28;1.55;;;;;;;25.98;53.83;100641.75;3593172;39;20063;-64
2022/07/25 08:33:44;;;;;;;2.30;1.40;;;;;;;25.92;53.25;100645.31;3593545;39;20154;-64
2022/07/25 08:36:10;;;;;;;3.97;1.73;;;;;;;26.00;54.48;100653.41;3598744;39;20063;-64
2022/07/25 08:38:36;;;;;;;4.60;1.60;;;;;;;26.17;53.36;100641.06;3595803;39;20047;-65
2022/07/25 08:41:03;;;;;;;6.07;1.77;;;;;;;26.61;52.40;100653.66;3595754;39;20161;-64
2022/07/25 08:43:32;;;;;;;2.85;1.23;;;;;;;26.85;51.20;100651.41;3593851;39;20047;-65
2022/07/25 08:46:00;;;;;;;3.42;1.25;;;;;;;26.98;50.71;100651.44;3596064;39;20044;-65
2022/07/25 08:48:28;;;;;;;5.03;1.30;;;;;;;26.97;50.26;100649.75;3595303;39;20058;-65
2022/07/25 08:50:57;;;;;;;3.53;1.70;;;;;;;27.08;50.90;100640.91;3592819;39;20391;-64
2022/07/25 08:53:24;;;;;;;6.40;1.73;;;;;;;27.39;49.75;100645.00;3596542;39;20380;-65
2022/07/25 08:55:50;;;;;;;7.75;1.65;;;;;;;27.70;49.32;100649.94;3594837;39;20492;-64
2022/07/25 08:58:17;;;;;;;5.70;1.63;;;;;;;27.74;49.92;100650.34;3592337;39;20055;-65
2022/07/25 09:00:44;;;;;;;2.97;1.58;;;;;;;27.86;50.46;100665.28;3595992;39;20059;-64
2022/07/25 09:03:10;;;;;;;3.33;1.50;;;;;;;27.79;49.07;100658.06;3595468;39;20064;-65
2022/07/25 09:05:37;;;;;;;5.53;1.58;;;;;;;27.86;49.38;100665.28;3593879;39;20057;-65
2022/07/25 09:08:10;;;;;;;5.05;1.77;;;;;;;27.96;49.87;100660.16;3595404;39;20047;-64
2022/07/25 09:10:38;;;;;;;4.38;1.60;;;;;;;27.88;49.24;100656.75;3595256;39;20048;-64
2022/07/25 09:13:14;;;;;;;7.55;1.92;;;;;;;27.77;49.13;100659.09;3592606;39;20118;-64
2022/07/25 09:15:55;;;;;;;5.13;1.63;;;;;;;27.65;49.41;100658.00;3594382;39;20385;-65
2022/07/25 09:18:26;;;;;;;4.97;1.80;;;;;;;27.81;49.78;100665.06;3594432;39;20433;-64
2022/07/25 09:21:00;;;;;;;3.90;1.90;;;;;;;28.02;49.64;100664.00;3592647;39;20460;-64
2022/07/25 09:23:29;;;;;;;3.78;1.70;;;;;;;27.97;49.20;100672.94;3593042;39;20043;-64
2022/07/25 09:26:08;;;;;;;6.05;2.15;;;;;;;27.84;47.56;100672.06;3593216;39;20412;-63
2022/07/25 09:28:43;;;;;;;4.80;1.30;;;;;;;27.59;47.75;100669.03;3593845;39;20059;-63
2022/07/25 09:31:11;;;;;;;4.43;1.88;;;;;;;27.42;49.29;100669.44;3595071;39;20047;-64
2022/07/25 09:33:54;;;;;;;4.40;1.80;;;;;;;27.53;48.60;100682.66;3593264;39;20082;-63
2022/07/25 09:36:19;;;;;;;4.53;1.85;;;;;;;27.39;48.94;100677.28;3589457;39;20047;-63
2022/07/25 09:38:59;;;;;;;6.13;1.70;;;;;;;27.31;48.73;100692.16;3585876;39;20066;-63
2022/07/25 09:41:39;;;;;;;3.97;1.70;;;;;;;27.19;48.34;100691.06;3594054;39;20055;-63
2022/07/25 09:44:29;;;;;;;3.92;1.70;;;;;;;27.48;47.74;100695.38;3592894;39;20063;-63
2022/07/25 09:46:57;;;;;;;7.60;3.83;;;;;;;27.70;46.69;100705.19;3594738;39;20095;-63
2022/07/25 09:49:25;;;;;;;7.22;2.17;;;;;;;27.85;47.56;100699.50;3591881;39;20372;-64
2022/07/25 09:51:52;;;;;;;5.40;1.83;;;;;;;27.85;45.72;100666.34;3594716;39;20685;-63
2022/07/25 09:54:18;;;;;;;4.13;1.75;;;;;;;28.12;46.28;100680.16;3583932;39;20063;-66
2022/07/25 09:56:43;;;;;;;6.07;2.25;;;;;;;28.33;45.33;100699.25;3594008;39;20051;-64
2022/07/25 09:59:09;;;;;;;5.30;2.10;;;;;;;28.54;46.40;100705.63;3596405;39;20066;-65
2022/07/25 10:01:49;;;;;;;4.43;2.30;;;;;;;28.84;45.81;100700.47;3593172;39;20062;-65
2022/07/25 10:04:31;;;;;;;4.85;2.03;;;;;;;29.16;44.80;100693.09;3594767;39;20051;-65
2022/07/25 10:07:08;;;;;;;4.85;2.05;;;;;;;29.08;44.25;100704.41;3593601;39;20450;-64
2022/07/25 10:09:45;;;;;;;3.78;1.90;;;;;;;28.80;43.56;100700.03;3596648;39;20059;-64
2022/07/25 10:12:18;;;;;;;4.53;2.17;;;;;;;29.06;43.98;100701.03;3583806;39;20039;-64
2022/07/25 10:15:12;;;;;;;2.63;1.83;;;;;;;29.32;42.38;100714.75;3590125;39;20062;-65
2022/07/25 10:17:40;;;;;;;5.63;1.90;;;;;;;29.53;41.83;100712.72;3593754;39;20048;-64
2022/07/25 10:20:10;;;;;;;5.47;1.88;;;;;;;29.66;41.45;100709.91;3595303;39;20569;-64
2022/07/25 10:22:43;;;;;;;4.43;1.83;;;;;;;29.82;41.39;100714.91;3592348;39;20064;-65
2022/07/25 10:25:16;;;;;;;4.70;1.63;;;;;;;30.13;41.09;100704.84;3593583;39;20063;-65
2022/07/25 10:27:49;;;;;;;3.75;1.50;;;;;;;30.28;39.42;100696.19;3595220;39;20067;-65
2022/07/25 10:30:23;;;;;;;4.45;1.60;;;;;;;30.60;39.85;100704.41;3581599;39;20494;-65
2022/07/25 10:33:16;;;;;;;4.13;1.58;;;;;;;30.53;37.67;100702.53;3593570;39;20059;-64
2022/07/25 10:35:42;;;;;;;;;;;;;;;30.45;37.75;100707.56;3594533;39;20055;-64
2022/07/25 10:38:08;;;;;;;4.75;1.65;;;;;;;30.33;37.60;100703.84;3593581;39;19938;-64
2022/07/25 10:40:42;;;;;;;3.90;1.85;;;;;;;30.11;38.86;100718.06;3592649;39;20055;-65
2022/07/25 10:43:12;;;;;;;3.88;1.90;;;;;;;29.97;39.16;100720.13;3594826;39;20074;-65
2022/07/25 10:45:52;;;;;;;3.88;2.20;;;;;;;29.89;39.08;100703.75;3594427;39;20047;-64
2022/07/25 10:48:28;;;;;;;4.50;1.60;;;;;;;30.07;40.78;100711.28;3593643;39;20160;-65
2022/07/25 10:51:04;;;;;;;5.25;1.95;;;;;;;30.15;40.61;100713.78;3592364;39;20072;-64
2022/07/25 10:53:44;;;;;;;5.45;1.90;;;;;;;29.94;39.39;100717.81;3593896;39;20417;-64
2022/07/25 10:56:18;;;;;;;4.07;1.73;;;;;;;30.11;40.49;100720.84;3592936;39;20059;-65
2022/07/25 10:59:00;;;;;;;5.45;1.90;;;;;;;30.20;39.34;100727.84;3594912;39;20126;-66
2022/07/25 11:01:31;;;;;;;4.03;1.63;;;;;;;30.08;38.55;100722.16;3592800;39;20099;-65
2022/07/25 11:04:13;;;;;;;5.28;1.98;;;;;;;30.03;38.90;100743.28;3581771;39;20055;-64
2022/07/25 11:06:41;;;;;;;3.88;2.30;;;;;;;29.72;39.10;100736.72;3592212;39;20312;-64
2022/07/25 11:09:25;;;;;;;5.35;2.15;;;;;;;29.61;39.59;100743.78;3594710;39;20047;-64
2022/07/25 11:11:55;;;;;;;4.03;1.77;;;;;;;29.49;40.61;100728.06;3593220;39;20192;-64
2022/07/25 11:14:24;;;;;;;4.80;2.10;;;;;;;29.39;40.50;100726.63;3590109;39;20099;-65
2022/07/25 11:16:56;;;;;;;4.45;2.08;;;;;;;29.38;41.67;100735.19;3593633;39;20059;-64
2022/07/25 11:19:28;;;;;;;5.60;2.30;;;;;;;29.24;41.03;100698.41;3593537;39;20113;-64
2022/07/25 11:21:59;;;;;;;5.38;2.20;;;;;;;29.58;40.55;100729.50;3593145;39;20055;-65
2022/07/25 11:24:42;;;;;;;4.63;2.40;;;;;;;29.53;40.39;100744.03;3590280;39;20087;-65
2022/07/25 11:27:11;;;;;;;4.93;2.77;;;;;;;29.21;40.72;100734.84;3595147;39;20063;-64
2022/07/25 11:29:39;;;;;;;5.32;2.80;;;;;;;28.93;41.79;100744.28;3592690;39;20051;-65